Time;durP1;ratioP1;P1;durP2;ratioP2;P2;SDS_P1;SDS_P2;PMS_P1;PMS_P2;Temp;Humidity;BMP_temperature;BMP_pressure;BME280_temperature;BME280_humidity;BME280_pressure;Samples;Min_cycle;Max_cycle;Signal;HPM_P1;HPM_P2
2023/01/17 00:02:02;;;;;;;5.43;2.10;;;;;;;4.47;81.64;97288.63;5003177;28;20603;-73
2023/01/17 00:10:01;;;;;;;3.38;1.77;;;;;;;4.14;82.60;97276.66;5000171;28;20386;-73
2023/01/17 00:12:29;;;;;;;4.22;2.05;;;;;;;4.10;82.76;97268.97;4996328;28;20038;-73
2023/01/17 00:14:56;;;;;;;4.28;2.00;;;;;;;4.07;83.62;97274.28;4984653;28;20034;-73
2023/01/17 00:17:23;;;;;;;3.40;1.70;;;;;;;4.07;83.35;97267.28;4999477;28;20436;-74
2023/01/17 01:34:29;;;;;;;6.50;2.28;;;;;;;4.38;82.67;97264.53;5002278;28;20038;-73
2023/01/17 01:36:55;;;;;;;3.58;2.00;;;;;;;4.42;82.66;97265.28;5002543;28;20029;-73
2023/01/17 01:39:20;;;;;;;3.97;1.50;;;;;;;4.54;82.88;97269.25;5008405;28;20384;-73
2023/01/17 01:41:45;;;;;;;3.40;1.63;;;;;;;4.56;82.62;97259.59;5002685;28;20523;-73
2023/01/17 01:44:43;;;;;;;4.60;1.48;;;;;;;4.64;82.35;97261.91;5005470;28;20113;-74
2023/01/17 01:47:12;;;;;;;2.70;1.30;;;;;;;4.67;82.64;97260.06;5000408;28;20038;-74
2023/01/17 01:49:37;;;;;;;3.08;1.60;;;;;;;4.67;82.86;97257.47;5005125;28;20034;-74
2023/01/17 01:52:05;;;;;;;3.33;1.77;;;;;;;4.73;82.15;97252.00;5002849;23;20042;-75
2023/01/17 01:54:36;;;;;;;3.50;1.25;;;;;;;4.80;81.94;97260.50;4979033;28;20039;-75
2023/01/17 01:57:03;;;;;;;2.38;1.00;;;;;;;4.87;82.20;97267.19;4984055;28;20474;-75
2023/01/17 01:59:31;;;;;;;3.63;1.90;;;;;;;4.86;81.67;97259.44;4983218;28;20038;-75
2023/01/17 02:01:59;;;;;;;2.42;1.20;;;;;;;4.91;81.20;97258.34;4986491;28;20459;-75
2023/01/17 02:04:27;;;;;;;4.45;2.20;;;;;;;4.96;81.03;97268.66;4979621;28;20038;-75
2023/01/17 02:07:29;;;;;;;2.28;1.13;;;;;;;5.04;80.75;97258.78;4985506;28;20505;-75
2023/01/17 02:09:55;;;;;;;1.88;0.73;;;;;;;5.08;80.73;97259.50;4984455;28;20042;-74
2023/01/17 02:12:21;;;;;;;1.15;0.70;;;;;;;5.17;80.54;97262.63;4982083;28;20044;-75
2023/01/17 02:14:46;;;;;;;1.02;0.40;;;;;;;5.20;80.81;97264.28;4982587;28;20110;-74
2023/01/17 02:17:18;;;;;;;2.20;0.32;;;;;;;5.29;80.60;97258.69;4982579;28;20042;-74
2023/01/17 02:20:20;;;;;;;0.22;0.10;;;;;;;5.45;80.34;97259.00;4984655;28;20064;-75
2023/01/17 02:23:26;;;;;;;0.22;0.03;;;;;;;5.48;79.54;97253.66;4978976;28;20050;-75
2023/01/17 02:26:16;;;;;;;0.20;0.13;;;;;;;5.57;79.28;97255.91;4982870;28;20449;-73
2023/01/17 02:28:55;;;;;;;0.10;0.10;;;;;;;5.59;79.51;97250.63;4986202;28;20046;-73
2023/01/17 02:31:28;;;;;;;0.50;0.10;;;;;;;5.61;79.40;97260.13;4980737;28;20050;-72
2023/01/17 02:34:02;;;;;;;0.03;0.00;;;;;;;5.63;79.43;97255.69;4984737;28;20046;-73
2023/01/17 02:36:44;;;;;;;1.65;0.30;;;;;;;5.65;79.13;97253.84;4978961;28;20046;-73
2023/01/17 02:39:19;;;;;;;;;;;;;;;5.65;79.05;97251.22;4982540;28;20465;-72
2023/01/17 02:41:50;;;;;;;0.38;0.20;;;;;;;5.65;79.57;97258.22;4985029;28;19914;-73
2023/01/17 02:44:18;;;;;;;1.35;0.80;;;;;;;5.67;79.39;97257.25;4982017;28;20097;-72
2023/01/17 02:46:49;;;;;;;1.83;0.40;;;;;;;5.65;79.82;97255.59;4977305;28;20137;-73
2023/01/17 02:49:18;;;;;;;0.65;0.30;;;;;;;5.68;79.72;97260.72;4983924;28;20488;-72
2023/01/17 02:51:55;;;;;;;0.77;0.10;;;;;;;5.66;79.46;97258.19;4981648;28;20038;-72
2023/01/17 02:54:27;;;;;;;0.20;0.08;;;;;;;5.65;80.07;97266.06;4979434;28;20121;-73
2023/01/17 02:57:12;;;;;;;2.58;0.17;;;;;;;5.64;79.88;97259.16;4981979;28;20049;-72
2023/01/17 02:59:43;;;;;;;0.52;0.13;;;;;;;5.60;79.99;97261.00;4979509;28;20038;-73
2023/01/17 03:02:20;;;;;;;0.52;0.13;;;;;;;5.57;80.70;97258.53;4980344;28;20096;-73
2023/01/17 03:04:52;;;;;;;0.10;0.10;;;;;;;5.56;80.64;97267.28;4980512;28;20062;-73
2023/01/17 03:07:24;;;;;;;0.30;0.20;;;;;;;5.54;81.07;97276.94;4981242;28;20040;-72
2023/01/17 03:09:56;;;;;;;0.43;0.13;;;;;;;5.57;80.70;97283.81;4981853;28;20042;-72
2023/01/17 03:12:21;;;;;;;0.70;0.22;;;;;;;5.62;80.81;97272.28;4983652;28;20042;-73
2023/01/17 03:14:47;;;;;;;0.22;0.10;;;;;;;5.66;80.03;97283.50;4983787;28;20132;-73
2023/01/17 03:17:12;;;;;;;0.45;0.20;;;;;;;5.62;80.00;97293.22;4980544;28;20401;-72
2023/01/17 03:19:38;;;;;;;0.20;0.10;;;;;;;5.69;80.39;97297.31;4984323;28;20481;-73
2023/01/17 03:22:03;;;;;;;0.52;0.20;;;;;;;5.75;79.85;97303.22;4981518;28;20068;-73
2023/01/17 03:24:28;;;;;;;0.22;0.10;;;;;;;5.73;80.01;97295.41;4983330;28;20041;-73
2023/01/17 03:26:54;;;;;;;0.75;0.17;;;;;;;5.76;80.02;97304.91;4982241;28;20039;-73
2023/01/17 03:29:19;;;;;;;0.32;0.10;;;;;;;5.76;80.60;97308.38;4982015;28;20049;-73
2023/01/17 03:31:45;;;;;;;2.17;0.30;;;;;;;5.69;81.27;97302.53;4981704;28;20046;-72
2023/01/17 03:34:11;;;;;;;2.60;0.22;;;;;;;5.68;81.44;97311.28;4984068;28;20045;-72
2023/01/17 03:36:36;;;;;;;0.47;0.20;;;;;;;5.62;82.55;97327.22;4980345;28;20034;-73
2023/01/17 03:39:01;;;;;;;0.75;0.22;;;;;;;5.55;84.27;97335.34;4982705;28;20118;-73
2023/01/17 03:41:27;;;;;;;0.35;0.13;;;;;;;5.44;88.20;97341.81;4979402;28;20559;-73
2023/01/17 03:43:52;;;;;;;0.63;0.30;;;;;;;5.19;93.44;97347.09;4967517;28;20054;-72
2023/01/17 03:46:25;;;;;;;0.50;0.20;;;;;;;4.88;97.76;97349.06;4980790;28;20374;-72
2023/01/17 03:48:51;;;;;;;0.82;0.30;;;;;;;4.69;100.00;97346.22;4977496;28;20043;-73
2023/01/17 03:51:16;;;;;;;0.50;0.28;;;;;;;4.56;100.00;97359.69;4982604;28;20121;-73
2023/01/17 03:53:45;;;;;;;0.38;0.10;;;;;;;4.51;100.00;97355.53;4979969;28;20599;-72
2023/01/17 03:56:10;;;;;;;0.47;0.20;;;;;;;4.41;100.00;97359.34;4982579;28;20053;-72
2023/01/17 03:58:35;;;;;;;0.60;0.20;;;;;;;4.39;100.00;97369.81;4980547;28;20039;-72
2023/01/17 04:01:01;;;;;;;0.52;0.10;;;;;;;4.36;100.00;97369.94;4983599;28;20038;-72
2023/01/17 04:03:26;;;;;;;0.28;0.10;;;;;;;4.31;100.00;97367.44;4980977;28;20048;-72
2023/01/17 04:05:51;;;;;;;0.40;0.17;;;;;;;4.35;100.00;97358.63;4980843;28;20031;-72
2023/01/17 04:08:17;;;;;;;0.30;0.20;;;;;;;4.35;100.00;97363.84;4981829;28;20065;-72
2023/01/17 04:10:42;;;;;;;0.93;0.22;;;;;;;4.35;100.00;97358.63;4979966;28;20039;-72
2023/01/17 04:13:07;;;;;;;0.30;0.10;;;;;;;4.34;100.00;97361.28;4983046;28;20038;-72
2023/01/17 04:15:33;;;;;;;0.55;0.20;;;;;;;4.43;100.00;97354.91;4979751;28;20446;-73
2023/01/17 04:17:58;;;;;;;1.77;0.20;;;;;;;4.44;100.00;97367.06;4983385;28;20042;-73
2023/01/17 04:20:36;;;;;;;1.73;0.43;;;;;;;4.44;100.00;97359.22;4980937;28;20031;-73
2023/01/17 04:23:01;;;;;;;0.38;0.10;;;;;;;4.49;100.00;97362.56;4983640;28;20042;-72
2023/01/17 04:25:29;;;;;;;1.80;0.35;;;;;;;4.51;100.00;97363.38;4979639;28;20035;-73
2023/01/17 04:27:56;;;;;;;0.63;0.20;;;;;;;4.61;100.00;97362.13;4983020;28;20034;-72
2023/01/17 04:30:21;;;;;;;0.47;0.20;;;;;;;4.66;100.00;97368.06;4981569;28;20038;-72
2023/01/17 04:32:47;;;;;;;0.50;0.17;;;;;;;4.75;99.40;97362.53;4980149;28;20034;-72
2023/01/17 04:35:12;;;;;;;0.68;0.30;;;;;;;4.78;98.89;97378.13;4972966;28;20042;-72
2023/01/17 04:37:39;;;;;;;1.13;0.20;;;;;;;4.81;97.25;97378.00;4982499;28;20118;-72
2023/01/17 04:40:04;;;;;;;0.75;0.30;;;;;;;4.82;95.23;97384.97;4976190;28;20031;-72
2023/01/17 04:42:30;;;;;;;0.70;0.20;;;;;;;4.86;94.40;97382.25;4981324;28;20034;-73
2023/01/17 04:44:55;;;;;;;1.75;0.30;;;;;;;4.88;94.09;97380.44;4980520;28;20036;-72
2023/01/17 04:47:21;;;;;;;1.20;0.30;;;;;;;4.90;93.16;97387.31;4981246;28;20205;-73
2023/01/17 04:49:46;;;;;;;0.60;0.25;;;;;;;4.98;92.63;97395.75;4982123;28;20042;-73
2023/01/17 04:52:13;;;;;;;0.40;0.25;;;;;;;5.03;91.99;97392.94;4983768;28;20440;-73
2023/01/17 04:54:39;;;;;;;0.82;0.35;;;;;;;5.03;91.25;97395.56;4986968;28;20038;-73
2023/01/17 04:57:05;;;;;;;0.70;0.22;;;;;;;5.01;90.47;97398.25;4983690;28;20035;-73
2023/01/17 04:59:30;;;;;;;1.48;0.50;;;;;;;5.04;89.64;97399.91;4985671;28;20158;-73
2023/01/17 05:01:55;;;;;;;1.92;0.47;;;;;;;5.07;89.24;97404.19;4983350;28;20039;-73
2023/01/17 05:04:21;;;;;;;1.70;0.30;;;;;;;5.09;88.33;97403.22;4985800;28;20052;-73
2023/01/17 05:06:46;;;;;;;1.55;0.40;;;;;;;5.11;88.02;97406.66;4985163;28;20509;-73
2023/01/17 05:09:11;;;;;;;0.52;0.28;;;;;;;5.10;88.05;97420.59;4983480;28;20458;-73
2023/01/17 05:11:37;;;;;;;0.90;0.40;;;;;;;5.14;87.41;97410.91;4982813;28;20387;-73
2023/01/17 05:14:02;;;;;;;1.00;0.45;;;;;;;5.14;87.70;97414.38;4985354;28;20030;-73
2023/01/17 05:16:27;;;;;;;1.58;0.47;;;;;;;5.11;86.62;97426.69;4985644;28;20035;-73
2023/01/17 05:18:53;;;;;;;0.73;0.20;;;;;;;5.14;86.78;97435.28;4983717;28;20034;-72
2023/01/17 05:21:20;;;;;;;1.95;0.50;;;;;;;5.07;86.42;97433.78;4982588;28;20046;-73
2023/01/17 05:23:45;;;;;;;0.85;0.40;;;;;;;5.12;87.03;97444.94;4983990;28;20624;-73
2023/01/17 05:26:11;;;;;;;2.00;0.43;;;;;;;5.10;86.77;97451.97;4977992;28;20117;-73
2023/01/17 05:28:36;;;;;;;1.67;0.50;;;;;;;5.09;86.83;97455.50;4977318;28;20034;-73
2023/01/17 05:31:02;;;;;;;2.05;0.60;;;;;;;5.14;86.26;97464.03;4984846;28;20116;-73
2023/01/17 05:33:27;;;;;;;2.65;0.50;;;;;;;5.12;85.31;97465.84;4983426;28;20113;-72
2023/01/17 05:35:52;;;;;;;1.65;0.55;;;;;;;5.15;85.09;97470.97;4987059;28;20049;-73
2023/01/17 05:38:18;;;;;;;4.68;0.52;;;;;;;5.14;84.91;97474.50;4979694;28;20046;-72
2023/01/17 05:40:43;;;;;;;3.95;0.50;;;;;;;5.15;85.33;97484.03;4986181;28;20062;-72
2023/01/17 05:43:09;;;;;;;1.52;0.60;;;;;;;5.19;85.22;97493.50;4984337;28;20448;-73
2023/01/17 05:45:34;;;;;;;0.63;0.30;;;;;;;5.16;85.41;97488.38;4983097;28;20074;-73
2023/01/17 05:48:00;;;;;;;1.20;0.45;;;;;;;5.22;85.12;97489.94;4985083;28;20544;-73
2023/01/17 05:50:31;;;;;;;1.85;0.73;;;;;;;5.21;85.28;97483.88;4984048;28;20093;-73
2023/01/17 05:53:00;;;;;;;4.30;0.90;;;;;;;5.23;86.01;97505.56;4979173;28;20031;-73
2023/01/17 05:55:27;;;;;;;5.72;1.58;;;;;;;5.21;85.46;97499.56;4982979;28;20078;-73
2023/01/17 05:57:53;;;;;;;2.72;0.98;;;;;;;5.18;85.06;97504.00;4982853;28;20026;-73
2023/01/17 06:00:20;;;;;;;12.60;6.28;;;;;;;5.23;85.87;97507.31;4981364;28;20034;-73
2023/01/17 06:02:45;;;;;;;3.28;1.15;;;;;;;5.25;85.08;97527.28;4984548;28;20034;-72
2023/01/17 06:05:11;;;;;;;3.20;1.58;;;;;;;5.26;84.96;97521.13;4981520;28;20027;-73
2023/01/17 06:07:37;;;;;;;5.32;1.25;;;;;;;5.24;84.17;97538.66;4979691;28;20556;-73
2023/01/17 06:10:02;;;;;;;3.40;1.10;;;;;;;5.25;82.96;97529.06;4984545;28;20516;-73
2023/01/17 06:12:28;;;;;;;1.73;0.68;;;;;;;5.17;82.85;97531.91;4984135;28;20109;-72
2023/01/17 06:14:53;;;;;;;4.65;1.60;;;;;;;5.21;83.88;97530.03;4983408;28;20050;-72
2023/01/17 06:17:18;;;;;;;1.63;0.70;;;;;;;5.15;82.80;97528.50;4984367;28;20393;-72
2023/01/17 06:19:44;;;;;;;3.67;0.80;;;;;;;5.15;83.69;97528.50;4981905;28;20090;-72
2023/01/17 06:22:09;;;;;;;3.85;0.85;;;;;;;5.08;83.12;97529.59;4984303;28;20044;-72
2023/01/17 06:24:35;;;;;;;2.05;0.82;;;;;;;5.03;83.17;97528.88;4985567;28;20548;-73
2023/01/17 06:27:00;;;;;;;1.63;0.60;;;;;;;5.02;82.81;97542.84;4982934;28;20849;-73
2023/01/17 06:29:26;;;;;;;2.65;0.73;;;;;;;4.99;83.06;97542.97;4983430;28;20045;-73
2023/01/17 06:31:51;;;;;;;3.22;0.95;;;;;;;4.95;82.94;97544.81;4984342;28;20034;-72
2023/01/17 06:34:17;;;;;;;2.67;0.50;;;;;;;4.97;83.37;97535.16;4980995;28;20039;-72
2023/01/17 06:36:42;;;;;;;2.20;0.70;;;;;;;4.96;83.18;97541.28;4984716;28;20043;-72
2023/01/17 06:39:09;;;;;;;3.58;0.50;;;;;;;4.94;82.90;97540.47;4982381;28;20058;-72
2023/01/17 06:41:34;;;;;;;1.13;0.40;;;;;;;4.98;82.79;97544.72;4983786;28;20125;-72
2023/01/17 06:43:59;;;;;;;1.33;0.40;;;;;;;4.95;82.67;97541.34;4981596;28;20132;-73
2023/01/17 06:46:25;;;;;;;0.77;0.30;;;;;;;4.92;82.51;97537.06;4983463;28;20042;-73
2023/01/17 06:48:50;;;;;;;1.52;0.50;;;;;;;4.85;82.51;97546.00;4981901;28;20050;-72
2023/01/17 06:51:16;;;;;;;1.08;0.38;;;;;;;4.90;82.58;97544.13;4977753;28;20034;-72
2023/01/17 06:53:41;;;;;;;1.80;0.52;;;;;;;4.88;82.05;97535.47;4981387;28;20088;-72
2023/01/17 06:56:07;;;;;;;0.90;0.32;;;;;;;4.86;82.05;97547.72;4975718;28;20077;-73
2023/01/17 06:58:33;;;;;;;1.75;0.40;;;;;;;4.73;83.08;97547.22;4980064;28;20486;-72
2023/01/17 07:01:04;;;;;;;2.45;0.65;;;;;;;4.70;83.54;97557.78;4982384;28;20039;-73
2023/01/17 07:03:30;;;;;;;1.55;0.68;;;;;;;4.64;83.34;97563.19;4984264;28;20209;-72
2023/01/17 07:05:55;;;;;;;1.33;0.50;;;;;;;4.62;83.79;97562.38;4979254;28;20152;-73
2023/01/17 07:08:20;;;;;;;1.23;0.43;;;;;;;4.54;84.17;97559.13;4981771;28;20065;-72
2023/01/17 07:10:46;;;;;;;2.00;0.65;;;;;;;4.47;84.56;97568.91;4973330;28;20116;-72
2023/01/17 07:13:12;;;;;;;1.65;0.55;;;;;;;4.49;84.46;97566.25;4977850;28;20056;-72
2023/01/17 07:15:38;;;;;;;0.98;0.28;;;;;;;4.43;84.72;97575.13;4983387;28;20037;-73
2023/01/17 07:18:04;;;;;;;1.70;0.80;;;;;;;4.38;85.20;97583.09;4982058;28;20529;-73
2023/01/17 07:20:29;;;;;;;1.10;0.40;;;;;;;4.35;84.71;97585.78;4983272;28;20042;-73
2023/01/17 07:22:55;;;;;;;1.33;0.52;;;;;;;4.29;85.48;97587.69;4983603;28;20038;-72
2023/01/17 07:25:21;;;;;;;1.17;0.10;;;;;;;4.27;85.44;97595.59;4982418;28;20038;-73
2023/01/17 07:27:46;;;;;;;1.55;0.60;;;;;;;4.26;85.71;97595.63;4982785;28;20041;-73
2023/01/17 07:30:12;;;;;;;1.42;0.60;;;;;;;4.25;85.00;97597.38;4981283;28;20041;-73
2023/01/17 07:32:37;;;;;;;1.92;0.60;;;;;;;4.25;85.36;97606.97;4984142;28;20046;-72
2023/01/17 07:35:04;;;;;;;3.28;0.50;;;;;;;4.22;85.14;97602.69;4977180;28;20090;-73
2023/01/17 07:37:30;;;;;;;1.55;0.63;;;;;;;4.23;84.98;97614.00;4978053;28;20445;-72
2023/01/17 07:39:55;;;;;;;2.03;0.52;;;;;;;4.23;84.91;97620.06;4981434;28;20045;-72
2023/01/17 07:42:21;;;;;;;1.52;0.60;;;;;;;4.25;84.89;97610.44;4980105;28;20031;-72
2023/01/17 07:44:46;;;;;;;1.55;0.52;;;;;;;4.26;84.91;97619.97;4979927;28;20038;-73
2023/01/17 07:47:11;;;;;;;2.30;0.73;;;;;;;4.27;84.58;97611.25;4978748;28;20098;-73
2023/01/17 07:49:37;;;;;;;4.38;0.55;;;;;;;4.30;84.58;97612.94;4976634;28;20027;-72
2023/01/17 07:52:05;;;;;;;1.20;0.40;;;;;;;4.31;84.83;97618.09;4982673;28;20081;-72
2023/01/17 07:54:30;;;;;;;1.10;0.40;;;;;;;4.35;84.31;97619.72;5000642;23;20116;-74
2023/01/17 07:56:55;;;;;;;1.13;0.40;;;;;;;4.43;84.25;97626.47;4985411;28;20042;-74
2023/01/17 07:59:21;;;;;;;1.27;0.50;;;;;;;4.44;83.83;97621.22;4990133;28;20033;-73
2023/01/17 08:01:46;;;;;;;1.48;0.52;;;;;;;4.55;83.16;97631.34;4991307;28;20026;-74
2023/01/17 08:04:12;;;;;;;2.85;0.50;;;;;;;4.60;82.84;97621.63;4991155;28;20034;-73
2023/01/17 08:06:42;;;;;;;2.97;0.60;;;;;;;4.68;83.13;97624.88;4989906;28;20040;-73
2023/01/17 08:09:07;;;;;;;1.88;0.50;;;;;;;4.66;82.72;97637.13;4990647;28;20088;-73
2023/01/17 08:11:32;;;;;;;1.10;0.45;;;;;;;4.57;82.22;97627.81;4990271;28;20481;-73
2023/01/17 08:13:58;;;;;;;0.50;0.30;;;;;;;4.49;82.71;97632.41;4990668;28;20536;-74
2023/01/17 08:16:25;;;;;;;1.23;0.60;;;;;;;4.45;82.88;97653.41;4996961;28;20046;-73
2023/01/17 08:18:51;;;;;;;1.85;0.65;;;;;;;4.43;83.63;97637.78;4990463;28;20034;-74
2023/01/17 08:21:17;;;;;;;3.30;0.65;;;;;;;4.38;83.21;97643.13;4991056;28;20175;-74
2023/01/17 08:23:51;;;;;;;0.55;0.28;;;;;;;4.31;83.99;97646.81;4989379;28;20081;-74
2023/01/17 08:26:21;;;;;;;1.35;0.60;;;;;;;4.27;85.40;97639.97;4992876;28;20501;-73
2023/01/17 08:28:48;;;;;;;1.90;0.90;;;;;;;4.30;87.37;97652.94;4995688;28;20042;-74
2023/01/17 08:31:13;;;;;;;0.60;0.40;;;;;;;4.31;85.02;97648.56;4993654;28;20085;-74
2023/01/17 08:33:39;;;;;;;2.40;0.73;;;;;;;4.31;84.38;97656.41;4995152;28;20421;-73
2023/01/17 08:36:04;;;;;;;2.75;0.40;;;;;;;4.34;84.67;97645.88;4993419;28;20468;-73
2023/01/17 08:38:29;;;;;;;2.08;0.68;;;;;;;4.32;84.53;97658.97;4995409;28;20485;-74
2023/01/17 08:40:59;;;;;;;2.20;0.50;;;;;;;4.32;84.32;97660.72;4990187;28;20080;-73
2023/01/17 08:43:24;;;;;;;1.13;0.50;;;;;;;4.30;84.27;97670.38;4989130;28;20050;-73
2023/01/17 08:45:50;;;;;;;3.00;0.95;;;;;;;4.27;83.99;97673.03;4994565;28;20493;-73
2023/01/17 08:48:15;;;;;;;5.18;0.82;;;;;;;4.28;84.31;97680.84;4995178;28;20519;-73
2023/01/17 08:50:40;;;;;;;1.70;0.50;;;;;;;4.25;84.62;97686.16;4992897;28;20037;-73
2023/01/17 08:53:06;;;;;;;4.20;0.60;;;;;;;4.11;84.67;97683.03;4993727;28;20030;-73
2023/01/17 08:55:32;;;;;;;2.45;0.45;;;;;;;4.17;84.70;97693.31;4994372;28;20042;-73
2023/01/17 08:57:58;;;;;;;0.40;0.20;;;;;;;4.20;84.32;97693.25;5002559;28;20041;-73
2023/01/17 09:00:23;;;;;;;0.90;0.40;;;;;;;4.26;84.58;97698.28;4994887;28;20026;-74
2023/01/17 09:02:51;;;;;;;1.80;0.40;;;;;;;4.37;83.84;97705.84;4993371;28;20461;-73
2023/01/17 09:05:16;;;;;;;1.35;0.50;;;;;;;4.46;83.44;97708.22;4994387;28;20046;-74
2023/01/17 09:07:41;;;;;;;0.82;0.32;;;;;;;4.58;82.63;97709.63;4994152;28;20041;-74
2023/01/17 09:10:07;;;;;;;1.50;0.60;;;;;;;4.76;81.82;97727.41;4994476;28;20038;-73
2023/01/17 09:12:35;;;;;;;0.82;0.40;;;;;;;4.94;81.46;97712.13;4993432;28;20524;-73
2023/01/17 09:15:01;;;;;;;3.97;0.77;;;;;;;5.05;80.79;97716.13;4993300;28;20030;-74
2023/01/17 09:17:27;;;;;;;0.52;0.30;;;;;;;5.18;80.27;97729.69;4992765;28;20034;-74
2023/01/17 09:19:52;;;;;;;0.98;0.60;;;;;;;5.19;78.47;97720.97;4994382;28;20386;-73
2023/01/17 09:22:17;;;;;;;0.73;0.50;;;;;;;5.35;78.48;97738.84;4990845;28;20044;-73
2023/01/17 09:24:43;;;;;;;3.45;0.75;;;;;;;5.41;78.12;97736.03;4994503;28;20045;-74
2023/01/17 09:27:08;;;;;;;1.70;0.40;;;;;;;5.44;77.35;97744.63;4993900;28;20054;-74
2023/01/17 09:29:33;;;;;;;1.30;0.63;;;;;;;5.41;77.62;97734.25;4994403;28;20037;-73
2023/01/17 09:31:59;;;;;;;1.02;0.50;;;;;;;5.43;77.01;97740.31;4994569;28;20057;-73
2023/01/17 09:34:25;;;;;;;0.95;0.30;;;;;;;5.19;77.04;97744.50;4994235;28;20035;-74
2023/01/17 09:36:50;;;;;;;1.40;0.50;;;;;;;5.20;77.04;97756.66;4993084;28;20037;-73
2023/01/17 09:39:15;;;;;;;1.67;0.57;;;;;;;5.10;76.77;97757.84;4994339;28;20041;-74
2023/01/17 09:41:50;;;;;;;0.50;0.20;;;;;;;5.20;75.19;97764.50;4992961;28;20121;-74
2023/01/17 09:44:41;;;;;;;2.65;0.40;;;;;;;5.28;75.60;97761.69;4994191;28;20496;-73
2023/01/17 09:47:18;;;;;;;0.63;0.20;;;;;;;5.36;74.13;97751.84;4992287;28;20070;-73
2023/01/17 09:49:45;;;;;;;1.08;0.32;;;;;;;5.22;72.39;97765.34;4990037;28;20064;-73
2023/01/17 09:52:14;;;;;;;2.08;0.55;;;;;;;5.05;72.49;97757.09;4994219;28;20050;-73
2023/01/17 09:54:41;;;;;;;1.48;0.40;;;;;;;5.04;72.55;97766.72;4993747;28;20520;-74
2023/01/17 09:57:26;;;;;;;0.40;0.22;;;;;;;5.14;71.10;97769.94;5003891;28;20042;-73
2023/01/17 10:00:25;;;;;;;0.40;0.20;;;;;;;5.30;71.40;97762.50;4993517;28;20054;-73
2023/01/17 10:03:22;;;;;;;1.65;0.52;;;;;;;5.28;69.13;97761.69;4988545;28;20030;-73
2023/01/17 10:06:07;;;;;;;3.83;0.32;;;;;;;5.31;69.15;97773.81;4989862;28;20034;-74
2023/01/17 10:09:14;;;;;;;0.73;0.22;;;;;;;5.41;69.19;97763.03;4991663;28;20033;-74
2023/01/17 10:12:01;;;;;;;0.60;0.20;;;;;;;5.52;68.99;97765.31;4993550;28;20030;-74
2023/01/17 10:14:32;;;;;;;0.57;0.22;;;;;;;5.59;68.59;97774.72;4993494;28;20037;-74
2023/01/17 10:17:19;;;;;;;1.05;0.30;;;;;;;5.76;67.36;97770.72;4989856;28;20042;-74
2023/01/17 10:19:59;;;;;;;0.88;0.30;;;;;;;5.82;67.54;97760.06;4988577;28;20031;-74
2023/01/17 10:22:45;;;;;;;1.33;0.35;;;;;;;5.78;66.33;97779.38;4993192;28;20046;-73
2023/01/17 10:25:31;;;;;;;0.60;0.20;;;;;;;5.75;66.00;97782.09;4991909;28;20050;-74
2023/01/17 10:27:59;;;;;;;0.82;0.30;;;;;;;5.78;66.24;97774.16;5008112;28;20490;-73
2023/01/17 10:30:41;;;;;;;1.48;0.32;;;;;;;5.76;65.71;97782.03;4992763;28;20493;-74
2023/01/17 10:33:30;;;;;;;0.77;0.30;;;;;;;5.78;65.67;97789.84;4990315;28;20508;-74
2023/01/17 10:35:58;;;;;;;0.88;0.30;;;;;;;5.77;66.18;97785.53;4990966;28;20042;-74
2023/01/17 10:38:30;;;;;;;0.70;0.40;;;;;;;5.75;66.33;97788.19;4993291;28;20034;-74
2023/01/17 10:41:01;;;;;;;0.70;0.30;;;;;;;5.68;65.00;97774.41;4989638;28;20323;-73
2023/01/17 10:43:38;;;;;;;0.80;0.30;;;;;;;5.71;65.13;97779.56;4993253;28;20057;-74
2023/01/17 10:46:03;;;;;;;0.13;0.10;;;;;;;5.86;66.33;97782.59;4988450;28;20397;-74
2023/01/17 10:48:38;;;;;;;0.20;0.10;;;;;;;5.93;65.67;97786.75;4992181;28;20030;-74
2023/01/17 10:51:13;;;;;;;0.52;0.30;;;;;;;6.00;65.83;97785.69;4992553;28;20545;-73
2023/01/17 10:53:55;;;;;;;2.70;1.05;;;;;;;5.89;65.61;97792.97;4989468;28;20038;-74
2023/01/17 10:56:26;;;;;;;2.08;0.45;;;;;;;5.87;66.93;97805.28;4991034;28;20042;-74
2023/01/17 10:59:15;;;;;;;0.20;0.15;;;;;;;5.87;65.31;97794.81;4993021;28;20030;-74
2023/01/17 11:01:40;;;;;;;0.88;0.35;;;;;;;5.95;66.70;97778.88;4989966;28;20409;-74
2023/01/17 11:04:39;;;;;;;1.83;0.70;;;;;;;6.09;67.19;97790.63;4993915;28;20045;-74
2023/01/17 11:07:13;;;;;;;1.67;0.35;;;;;;;6.11;64.28;97794.06;4991541;28;20090;-74
2023/01/17 11:09:48;;;;;;;1.95;1.02;;;;;;;6.13;65.52;97779.16;5062622;28;20393;-74
2023/01/17 11:12:36;;;;;;;0.93;0.30;;;;;;;6.00;65.34;97800.53;5061405;28;20060;-73
2023/01/17 11:15:08;;;;;;;1.73;0.20;;;;;;;5.97;65.43;97801.47;5059264;28;20502;-73
2023/01/17 11:17:36;;;;;;;0.50;0.30;;;;;;;6.09;64.59;97801.09;5056362;28;20086;-74
2023/01/17 11:20:07;;;;;;;1.50;0.40;;;;;;;6.00;65.21;97811.00;5060558;28;20043;-74
2023/01/17 11:22:32;;;;;;;0.20;0.10;;;;;;;6.06;64.28;97822.16;5064015;28;20031;-73
2023/01/17 11:24:59;;;;;;;0.38;0.10;;;;;;;6.02;64.86;97810.06;5057842;28;20411;-74
2023/01/17 11:27:30;;;;;;;0.00;0.00;;;;;;;6.00;63.95;97814.50;5055966;28;20049;-73
2023/01/17 11:30:17;;;;;;;0.55;0.20;;;;;;;6.10;64.51;97815.94;5057926;28;20049;-74
2023/01/17 11:32:52;;;;;;;0.28;0.17;;;;;;;6.25;64.02;97814.56;5058301;28;20036;-73
2023/01/17 11:35:19;;;;;;;3.35;0.30;;;;;;;6.37;63.70;97808.09;5063574;28;20056;-73
2023/01/17 11:38:03;;;;;;;2.60;0.28;;;;;;;6.58;62.55;97804.75;5062526;28;20395;-73
2023/01/17 11:40:39;;;;;;;0.73;0.20;;;;;;;6.70;61.92;97807.84;5061325;28;20032;-73
2023/01/17 11:43:18;;;;;;;1.25;0.40;;;;;;;6.73;61.51;97810.38;5058380;28;20118;-73
2023/01/17 11:45:46;;;;;;;0.70;0.25;;;;;;;6.70;62.47;97810.47;5054799;28;20491;-74
2023/01/17 11:48:15;;;;;;;1.58;0.43;;;;;;;6.70;61.05;97811.31;5056970;28;20033;-74
2023/01/17 11:50:57;;;;;;;0.45;0.10;;;;;;;6.56;60.92;97827.53;5061670;28;20522;-74
2023/01/17 11:53:28;;;;;;;0.55;0.20;;;;;;;6.35;61.34;97807.28;5056822;28;20052;-74
2023/01/17 11:56:27;;;;;;;0.10;0.10;;;;;;;6.70;63.10;97813.94;5057561;28;20403;-74
2023/01/17 11:59:12;;;;;;;0.63;0.22;;;;;;;6.97;60.07;97812.16;5058285;28;20091;-73
2023/01/17 12:02:22;;;;;;;0.85;0.35;;;;;;;7.10;58.94;97827.44;5059716;28;20451;-73
2023/01/17 12:05:06;;;;;;;0.65;0.20;;;;;;;6.88;59.46;97807.22;5058393;28;20457;-74
2023/01/17 12:07:40;;;;;;;0.82;0.35;;;;;;;6.83;60.78;97810.91;5059557;28;20047;-74
2023/01/17 12:10:28;;;;;;;1.27;0.20;;;;;;;6.75;60.02;97819.88;5058193;28;20076;-73
2023/01/17 12:16:30;;;;;;;0.70;0.30;;;;;;;6.91;61.16;97814.97;5058310;28;20495;-74
2023/01/17 12:19:09;;;;;;;;;;;;;;;6.84;59.86;97810.88;5057233;28;20029;-74
2023/01/17 12:21:46;;;;;;;0.65;0.30;;;;;;;6.72;61.94;97796.41;5045390;28;19912;-74
2023/01/17 12:24:26;;;;;;;0.57;0.30;;;;;;;6.67;60.39;97811.44;5045148;28;20423;-74
2023/01/17 12:27:02;;;;;;;0.80;0.10;;;;;;;6.75;61.07;97814.66;5044978;28;20087;-73
2023/01/17 12:29:57;;;;;;;0.40;0.20;;;;;;;6.76;61.71;97812.91;5041648;28;20052;-73
2023/01/17 12:32:37;;;;;;;0.40;0.10;;;;;;;6.77;61.28;97812.84;5048518;28;20041;-73
2023/01/17 12:35:24;;;;;;;1.25;0.32;;;;;;;6.67;61.58;97814.06;5045103;28;20052;-74
2023/01/17 12:37:59;;;;;;;0.15;0.03;;;;;;;6.47;61.14;97821.72;5049843;28;20406;-74
2023/01/17 12:40:31;;;;;;;0.15;0.10;;;;;;;6.46;62.10;97825.25;5043966;28;20095;-73
2023/01/17 12:43:14;;;;;;;1.17;0.10;;;;;;;6.56;62.13;97832.75;5043366;28;20045;-73
2023/01/17 12:45:44;;;;;;;2.00;0.30;;;;;;;6.27;62.45;97840.72;5042638;28;20037;-72
2023/01/17 12:48:14;;;;;;;0.90;0.30;;;;;;;6.05;61.89;97838.78;5045797;28;20029;-73
2023/01/17 12:50:48;;;;;;;0.10;0.10;;;;;;;5.97;61.77;97847.75;5044925;28;20036;-73
2023/01/17 12:53:13;;;;;;;0.22;0.15;;;;;;;6.03;63.03;97840.59;5043561;28;20103;-73
2023/01/17 12:55:54;;;;;;;0.17;0.10;;;;;;;6.02;63.11;97844.09;5042107;28;20033;-72
2023/01/17 12:58:23;;;;;;;0.55;0.08;;;;;;;6.12;64.06;97844.66;5043307;28;20029;-73
2023/01/17 13:01:01;;;;;;;2.53;0.30;;;;;;;6.17;63.32;97850.63;5043066;28;20508;-72
2023/01/17 13:03:54;;;;;;;0.95;0.50;;;;;;;6.14;63.84;97850.72;5039562;28;20033;-72
2023/01/17 13:06:27;;;;;;;0.22;0.13;;;;;;;6.11;64.09;97850.81;5042080;28;20050;-73
2023/01/17 13:08:56;;;;;;;0.57;0.20;;;;;;;6.06;63.63;97853.56;5046158;28;20041;-72
2023/01/17 13:11:32;;;;;;;0.88;0.40;;;;;;;6.10;63.14;97849.97;5044554;28;20048;-73
2023/01/17 13:13:58;;;;;;;0.68;0.20;;;;;;;6.09;64.12;97852.63;5042425;28;20037;-73
2023/01/17 13:16:56;;;;;;;0.00;0.00;;;;;;;6.10;63.46;97855.22;5041990;28;20044;-74
2023/01/17 13:19:39;;;;;;;0.57;0.30;;;;;;;6.03;64.03;97858.91;5039882;28;20033;-72
2023/01/17 13:22:06;;;;;;;;;;;;;;;6.01;64.25;97868.56;5044864;28;20483;-73